sensor_id;sensor_type;location;lat;lon;timestamp;temperature;humidity
18406;DHT22;9329;48.720;9.588;2022-07-29T00:01:54;21.20;99.90
18406;DHT22;9329;48.720;9.588;2022-07-29T00:04:21;21.00;99.90
18406;DHT22;9329;48.720;9.588;2022-07-29T00:06:48;20.80;99.90
18406;DHT22;9329;48.720;9.588;2022-07-29T00:09:15;20.80;99.90
18406;DHT22;9329;48.720;9.588;2022-07-29T00:11:42;21.20;99.90
18406;DHT22;9329;48.720;9.588;2022-07-29T00:14:09;21.20;99.90
18406;DHT22;9329;48.720;9.588;2022-07-29T00:16:38;21.30;99.90
18406;DHT22;9329;48.720;9.588;2022-07-29T00:19:05;21.10;99.90
18406;DHT22;9329;48.720;9.588;2022-07-29T00:21:32;21.20;99.90
18406;DHT22;9329;48.720;9.588;2022-07-29T00:23:59;21.30;99.90
18406;DHT22;9329;48.720;9.588;2022-07-29T00:26:27;21.80;99.90
18406;DHT22;9329;48.720;9.588;2022-07-29T00:28:57;21.30;99.90
18406;DHT22;9329;48.720;9.588;2022-07-29T00:31:25;21.50;99.90
18406;DHT22;9329;48.720;9.588;2022-07-29T00:33:53;21.30;99.90
18406;DHT22;9329;48.720;9.588;2022-07-29T00:36:21;21.50;99.90
18406;DHT22;9329;48.720;9.588;2022-07-29T00:38:47;21.70;99.90
18406;DHT22;9329;48.720;9.588;2022-07-29T00:41:14;21.80;99.90
18406;DHT22;9329;48.720;9.588;2022-07-29T00:43:41;21.80;99.90
18406;DHT22;9329;48.720;9.588;2022-07-29T00:46:09;21.40;99.90
18406;DHT22;9329;48.720;9.588;2022-07-29T00:48:36;21.60;99.90
18406;DHT22;9329;48.720;9.588;2022-07-29T00:51:06;21.70;99.90
18406;DHT22;9329;48.720;9.588;2022-07-29T00:53:36;21.50;99.90
18406;DHT22;9329;48.720;9.588;2022-07-29T00:56:03;21.20;99.90
18406;DHT22;9329;48.720;9.588;2022-07-29T00:58:31;21.40;99.90
18406;DHT22;9329;48.720;9.588;2022-07-29T01:00:58;21.60;99.90
18406;DHT22;9329;48.720;9.588;2022-07-29T01:03:25;21.40;99.90
18406;DHT22;9329;48.720;9.588;2022-07-29T01:05:53;21.30;99.90
18406;DHT22;9329;48.720;9.588;2022-07-29T01:08:23;21.20;99.90
18406;DHT22;9329;48.720;9.588;2022-07-29T01:10:51;21.30;99.90
18406;DHT22;9329;48.720;9.588;2022-07-29T01:13:19;21.20;99.90
18406;DHT22;9329;48.720;9.588;2022-07-29T01:15:51;21.30;99.90
18406;DHT22;9329;48.720;9.588;2022-07-29T01:18:24;21.50;99.90
18406;DHT22;9329;48.720;9.588;2022-07-29T01:21:15;22.00;99.90
18406;DHT22;9329;48.720;9.588;2022-07-29T01:24:10;21.60;99.90
18406;DHT22;9329;48.720;9.588;2022-07-29T01:26:44;21.80;99.90
18406;DHT22;9329;48.720;9.588;2022-07-29T01:29:17;21.80;99.90
18406;DHT22;9329;48.720;9.588;2022-07-29T01:31:48;21.60;99.90
18406;DHT22;9329;48.720;9.588;2022-07-29T01:34:23;21.50;99.90
18406;DHT22;9329;48.720;9.588;2022-07-29T01:37:04;21.60;99.90
18406;DHT22;9329;48.720;9.588;2022-07-29T01:39:35;21.30;99.90
18406;DHT22;9329;48.720;9.588;2022-07-29T01:42:10;21.00;99.90
18406;DHT22;9329;48.720;9.588;2022-07-29T01:44:45;21.20;99.90
18406;DHT22;9329;48.720;9.588;2022-07-29T01:47:17;20.90;99.90
18406;DHT22;9329;48.720;9.588;2022-07-29T01:49:48;20.70;99.90
18406;DHT22;9329;48.720;9.588;2022-07-29T01:52:21;21.00;99.90
18406;DHT22;9329;48.720;9.588;2022-07-29T01:54:55;20.90;99.90
18406;DHT22;9329;48.720;9.588;2022-07-29T01:57:27;20.50;99.90
18406;DHT22;9329;48.720;9.588;2022-07-29T01:59:56;20.30;99.90
18406;DHT22;9329;48.720;9.588;2022-07-29T02:02:25;20.20;99.90
18406;DHT22;9329;48.720;9.588;2022-07-29T02:04:53;20.20;99.90
18406;DHT22;9329;48.720;9.588;2022-07-29T02:07:21;20.10;99.90
18406;DHT22;9329;48.720;9.588;2022-07-29T02:09:50;20.70;99.90
18406;DHT22;9329;48.720;9.588;2022-07-29T02:12:19;20.60;99.90
18406;DHT22;9329;48.720;9.588;2022-07-29T02:14:49;20.30;99.90
18406;DHT22;9329;48.720;9.588;2022-07-29T02:17:22;20.40;99.90
18406;DHT22;9329;48.720;9.588;2022-07-29T02:19:52;20.40;99.90
18406;DHT22;9329;48.720;9.588;2022-07-29T02:22:21;20.10;99.90
18406;DHT22;9329;48.720;9.588;2022-07-29T02:24:50;20.00;99.90
18406;DHT22;9329;48.720;9.588;2022-07-29T02:27:19;19.90;99.90
18406;DHT22;9329;48.720;9.588;2022-07-29T02:29:47;20.20;99.90
18406;DHT22;9329;48.720;9.588;2022-07-29T02:32:17;20.20;99.90
18406;DHT22;9329;48.720;9.588;2022-07-29T02:34:46;20.30;99.90
18406;DHT22;9329;48.720;9.588;2022-07-29T02:37:16;20.50;99.90
18406;DHT22;9329;48.720;9.588;2022-07-29T02:39:45;20.30;99.90
18406;DHT22;9329;48.720;9.588;2022-07-29T02:42:15;20.00;99.90
18406;DHT22;9329;48.720;9.588;2022-07-29T02:44:43;20.00;99.90
18406;DHT22;9329;48.720;9.588;2022-07-29T02:47:15;19.90;99.90
18406;DHT22;9329;48.720;9.588;2022-07-29T02:49:55;19.70;99.90
18406;DHT22;9329;48.720;9.588;2022-07-29T02:52:26;19.90;99.90
18406;DHT22;9329;48.720;9.588;2022-07-29T02:54:58;20.10;99.90
18406;DHT22;9329;48.720;9.588;2022-07-29T02:57:32;20.10;99.90
18406;DHT22;9329;48.720;9.588;2022-07-29T03:00:03;20.00;99.90
18406;DHT22;9329;48.720;9.588;2022-07-29T03:02:34;20.30;99.90
18406;DHT22;9329;48.720;9.588;2022-07-29T03:05:05;20.10;99.90
18406;DHT22;9329;48.720;9.588;2022-07-29T03:07:34;19.70;99.90
18406;DHT22;9329;48.720;9.588;2022-07-29T03:10:02;20.20;99.90
18406;DHT22;9329;48.720;9.588;2022-07-29T03:12:30;20.20;99.90
18406;DHT22;9329;48.720;9.588;2022-07-29T03:14:59;19.50;99.90
18406;DHT22;9329;48.720;9.588;2022-07-29T03:17:27;19.60;99.90
18406;DHT22;9329;48.720;9.588;2022-07-29T03:19:54;19.70;99.90
18406;DHT22;9329;48.720;9.588;2022-07-29T03:22:23;19.90;99.90
18406;DHT22;9329;48.720;9.588;2022-07-29T03:24:50;19.50;99.90
18406;DHT22;9329;48.720;9.588;2022-07-29T03:27:18;19.30;99.90
18406;DHT22;9329;48.720;9.588;2022-07-29T03:29:45;19.00;99.90
18406;DHT22;9329;48.720;9.588;2022-07-29T03:32:12;19.50;99.90
18406;DHT22;9329;48.720;9.588;2022-07-29T03:34:39;19.60;99.90
18406;DHT22;9329;48.720;9.588;2022-07-29T03:37:06;19.20;99.90
18406;DHT22;9329;48.720;9.588;2022-07-29T03:39:38;19.00;99.90
18406;DHT22;9329;48.720;9.588;2022-07-29T03:42:08;18.80;99.90
18406;DHT22;9329;48.720;9.588;2022-07-29T03:44:37;18.60;99.90
18406;DHT22;9329;48.720;9.588;2022-07-29T03:47:07;18.70;99.90
18406;DHT22;9329;48.720;9.588;2022-07-29T03:49:36;19.00;99.90
18406;DHT22;9329;48.720;9.588;2022-07-29T03:52:05;19.20;99.90
18406;DHT22;9329;48.720;9.588;2022-07-29T03:54:32;19.10;99.90
18406;DHT22;9329;48.720;9.588;2022-07-29T03:57:02;18.90;99.90
18406;DHT22;9329;48.720;9.588;2022-07-29T03:59:31;18.90;99.90
18406;DHT22;9329;48.720;9.588;2022-07-29T04:02:00;18.80;99.90
18406;DHT22;9329;48.720;9.588;2022-07-29T04:04:28;19.00;99.90
18406;DHT22;9329;48.720;9.588;2022-07-29T04:06:58;19.30;99.90
18406;DHT22;9329;48.720;9.588;2022-07-29T04:09:25;19.30;99.90
18406;DHT22;9329;48.720;9.588;2022-07-29T04:11:53;19.10;99.90
18406;DHT22;9329;48.720;9.588;2022-07-29T04:14:21;19.30;99.90
18406;DHT22;9329;48.720;9.588;2022-07-29T04:16:48;19.20;99.90
18406;DHT22;9329;48.720;9.588;2022-07-29T04:19:15;19.30;99.90
18406;DHT22;9329;48.720;9.588;2022-07-29T04:21:42;19.50;99.90
18406;DHT22;9329;48.720;9.588;2022-07-29T04:24:10;20.10;99.90
18406;DHT22;9329;48.720;9.588;2022-07-29T04:26:37;19.80;99.90
18406;DHT22;9329;48.720;9.588;2022-07-29T04:29:04;19.50;99.90
18406;DHT22;9329;48.720;9.588;2022-07-29T04:31:33;19.80;99.90
18406;DHT22;9329;48.720;9.588;2022-07-29T04:34:00;19.90;99.90
18406;DHT22;9329;48.720;9.588;2022-07-29T04:36:27;20.20;99.90
18406;DHT22;9329;48.720;9.588;2022-07-29T04:38:54;20.10;99.90
18406;DHT22;9329;48.720;9.588;2022-07-29T04:41:21;19.70;99.90
18406;DHT22;9329;48.720;9.588;2022-07-29T04:43:48;19.70;99.90
18406;DHT22;9329;48.720;9.588;2022-07-29T04:46:15;20.00;99.90
18406;DHT22;9329;48.720;9.588;2022-07-29T04:48:45;20.20;99.90
18406;DHT22;9329;48.720;9.588;2022-07-29T04:51:12;20.50;99.90
18406;DHT22;9329;48.720;9.588;2022-07-29T04:53:39;19.90;99.90
18406;DHT22;9329;48.720;9.588;2022-07-29T04:56:06;20.20;99.90
18406;DHT22;9329;48.720;9.588;2022-07-29T04:58:34;20.10;99.90
18406;DHT22;9329;48.720;9.588;2022-07-29T05:01:01;20.30;99.90
18406;DHT22;9329;48.720;9.588;2022-07-29T05:03:29;20.80;99.90
18406;DHT22;9329;48.720;9.588;2022-07-29T05:05:57;20.90;99.90
18406;DHT22;9329;48.720;9.588;2022-07-29T05:08:26;21.00;99.90
18406;DHT22;9329;48.720;9.588;2022-07-29T05:10:53;20.80;99.90
18406;DHT22;9329;48.720;9.588;2022-07-29T05:13:20;20.80;99.90
18406;DHT22;9329;48.720;9.588;2022-07-29T05:15:47;20.60;99.90
18406;DHT22;9329;48.720;9.588;2022-07-29T05:18:15;20.60;99.90
18406;DHT22;9329;48.720;9.588;2022-07-29T05:20:42;20.40;99.90
18406;DHT22;9329;48.720;9.588;2022-07-29T05:23:11;20.60;99.90
18406;DHT22;9329;48.720;9.588;2022-07-29T05:25:40;20.60;99.90
18406;DHT22;9329;48.720;9.588;2022-07-29T05:28:07;20.50;99.90
18406;DHT22;9329;48.720;9.588;2022-07-29T05:30:34;20.70;99.90
18406;DHT22;9329;48.720;9.588;2022-07-29T05:33:01;20.70;99.90
18406;DHT22;9329;48.720;9.588;2022-07-29T05:35:28;20.70;99.90
18406;DHT22;9329;48.720;9.588;2022-07-29T05:37:55;20.60;99.90
18406;DHT22;9329;48.720;9.588;2022-07-29T05:40:24;21.00;99.90
18406;DHT22;9329;48.720;9.588;2022-07-29T05:42:51;21.10;99.90
18406;DHT22;9329;48.720;9.588;2022-07-29T05:45:18;20.70;99.90
18406;DHT22;9329;48.720;9.588;2022-07-29T05:47:45;20.70;99.90
18406;DHT22;9329;48.720;9.588;2022-07-29T05:50:12;21.00;99.90
18406;DHT22;9329;48.720;9.588;2022-07-29T05:52:39;21.20;99.90
18406;DHT22;9329;48.720;9.588;2022-07-29T05:55:07;21.10;99.90
18406;DHT22;9329;48.720;9.588;2022-07-29T05:57:36;21.20;99.90
18406;DHT22;9329;48.720;9.588;2022-07-29T06:00:04;21.00;99.90
18406;DHT22;9329;48.720;9.588;2022-07-29T06:02:41;21.00;99.90
18406;DHT22;9329;48.720;9.588;2022-07-29T06:05:08;21.10;99.90
18406;DHT22;9329;48.720;9.588;2022-07-29T06:07:35;21.10;99.90
18406;DHT22;9329;48.720;9.588;2022-07-29T06:10:02;21.10;99.90
18406;DHT22;9329;48.720;9.588;2022-07-29T06:12:30;21.20;99.90
18406;DHT22;9329;48.720;9.588;2022-07-29T06:14:58;21.70;99.90
18406;DHT22;9329;48.720;9.588;2022-07-29T06:17:25;21.60;99.90
18406;DHT22;9329;48.720;9.588;2022-07-29T06:19:52;21.70;99.90
18406;DHT22;9329;48.720;9.588;2022-07-29T06:22:19;22.00;99.90
18406;DHT22;9329;48.720;9.588;2022-07-29T06:24:46;22.10;99.90
18406;DHT22;9329;48.720;9.588;2022-07-29T06:27:14;22.20;99.90
18406;DHT22;9329;48.720;9.588;2022-07-29T06:29:41;22.00;99.90
18406;DHT22;9329;48.720;9.588;2022-07-29T06:32:10;21.90;99.90
18406;DHT22;9329;48.720;9.588;2022-07-29T06:34:37;22.00;99.90
18406;DHT22;9329;48.720;9.588;2022-07-29T06:37:08;21.80;99.90
18406;DHT22;9329;48.720;9.588;2022-07-29T06:39:35;21.70;99.90
18406;DHT22;9329;48.720;9.588;2022-07-29T06:42:03;21.90;99.90
18406;DHT22;9329;48.720;9.588;2022-07-29T06:44:31;21.70;99.90
18406;DHT22;9329;48.720;9.588;2022-07-29T06:46:59;21.70;99.90
18406;DHT22;9329;48.720;9.588;2022-07-29T06:49:28;21.60;99.90
18406;DHT22;9329;48.720;9.588;2022-07-29T06:51:55;22.00;99.90
18406;DHT22;9329;48.720;9.588;2022-07-29T06:54:22;22.20;99.90
18406;DHT22;9329;48.720;9.588;2022-07-29T06:56:49;22.40;99.90
18406;DHT22;9329;48.720;9.588;2022-07-29T06:59:16;22.40;99.90
18406;DHT22;9329;48.720;9.588;2022-07-29T07:01:43;22.50;99.90
18406;DHT22;9329;48.720;9.588;2022-07-29T07:04:11;22.60;99.90
18406;DHT22;9329;48.720;9.588;2022-07-29T07:06:40;22.60;99.90
18406;DHT22;9329;48.720;9.588;2022-07-29T07:09:08;23.10;99.90
18406;DHT22;9329;48.720;9.588;2022-07-29T07:11:35;23.60;99.90
18406;DHT22;9329;48.720;9.588;2022-07-29T07:14:02;23.90;99.90
18406;DHT22;9329;48.720;9.588;2022-07-29T07:16:29;23.90;99.90
18406;DHT22;9329;48.720;9.588;2022-07-29T07:18:56;24.10;99.90
18406;DHT22;9329;48.720;9.588;2022-07-29T07:21:24;24.10;99.90
18406;DHT22;9329;48.720;9.588;2022-07-29T07:23:52;24.40;99.90
18406;DHT22;9329;48.720;9.588;2022-07-29T07:26:19;24.70;99.90
18406;DHT22;9329;48.720;9.588;2022-07-29T07:28:46;25.30;99.90
18406;DHT22;9329;48.720;9.588;2022-07-29T07:31:13;25.30;99.90
18406;DHT22;9329;48.720;9.588;2022-07-29T07:33:40;25.80;99.90
18406;DHT22;9329;48.720;9.588;2022-07-29T07:36:07;25.90;99.90
18406;DHT22;9329;48.720;9.588;2022-07-29T07:38:34;26.00;99.90
18406;DHT22;9329;48.720;9.588;2022-07-29T07:41:03;26.00;99.90
18406;DHT22;9329;48.720;9.588;2022-07-29T07:43:30;26.10;99.90
18406;DHT22;9329;48.720;9.588;2022-07-29T07:45:57;26.50;99.90
18406;DHT22;9329;48.720;9.588;2022-07-29T07:48:24;26.60;99.90
18406;DHT22;9329;48.720;9.588;2022-07-29T07:50:52;26.40;99.90
18406;DHT22;9329;48.720;9.588;2022-07-29T07:53:19;26.90;99.90
18406;DHT22;9329;48.720;9.588;2022-07-29T07:55:46;27.00;99.90
18406;DHT22;9329;48.720;9.588;2022-07-29T07:58:15;26.90;99.90
18406;DHT22;9329;48.720;9.588;2022-07-29T08:00:41;26.90;99.90
18406;DHT22;9329;48.720;9.588;2022-07-29T08:03:08;26.60;99.90
18406;DHT22;9329;48.720;9.588;2022-07-29T08:05:37;26.50;99.90
18406;DHT22;9329;48.720;9.588;2022-07-29T08:08:04;26.40;99.90
18406;DHT22;9329;48.720;9.588;2022-07-29T08:10:31;26.20;99.90
18406;DHT22;9329;48.720;9.588;2022-07-29T08:13:17;26.30;99.90
18406;DHT22;9329;48.720;9.588;2022-07-29T08:15:44;26.00;99.90
18406;DHT22;9329;48.720;9.588;2022-07-29T08:18:11;26.00;99.90
18406;DHT22;9329;48.720;9.588;2022-07-29T08:20:38;25.70;99.90
18406;DHT22;9329;48.720;9.588;2022-07-29T08:23:07;25.90;99.90
18406;DHT22;9329;48.720;9.588;2022-07-29T08:25:36;25.90;99.90
18406;DHT22;9329;48.720;9.588;2022-07-29T08:28:04;26.10;99.90
18406;DHT22;9329;48.720;9.588;2022-07-29T08:30:33;26.20;99.90
18406;DHT22;9329;48.720;9.588;2022-07-29T08:33:00;26.30;99.90
18406;DHT22;9329;48.720;9.588;2022-07-29T08:35:27;26.50;99.90
18406;DHT22;9329;48.720;9.588;2022-07-29T08:37:54;26.70;99.90
18406;DHT22;9329;48.720;9.588;2022-07-29T08:40:22;27.00;99.90
18406;DHT22;9329;48.720;9.588;2022-07-29T08:42:50;26.80;99.90
18406;DHT22;9329;48.720;9.588;2022-07-29T08:45:17;26.70;99.90
18406;DHT22;9329;48.720;9.588;2022-07-29T08:47:46;26.70;99.90
18406;DHT22;9329;48.720;9.588;2022-07-29T08:50:13;27.00;99.90
18406;DHT22;9329;48.720;9.588;2022-07-29T08:52:41;27.10;99.90
18406;DHT22;9329;48.720;9.588;2022-07-29T08:55:09;27.20;99.90
18406;DHT22;9329;48.720;9.588;2022-07-29T08:57:38;27.20;99.90
18406;DHT22;9329;48.720;9.588;2022-07-29T09:00:07;27.00;99.90
18406;DHT22;9329;48.720;9.588;2022-07-29T09:02:40;26.80;99.90
18406;DHT22;9329;48.720;9.588;2022-07-29T09:05:10;26.70;99.90
18406;DHT22;9329;48.720;9.588;2022-07-29T09:07:39;27.10;99.90
18406;DHT22;9329;48.720;9.588;2022-07-29T09:10:08;27.10;99.90
18406;DHT22;9329;48.720;9.588;2022-07-29T09:12:35;27.20;99.90
18406;DHT22;9329;48.720;9.588;2022-07-29T09:15:03;27.20;99.90
18406;DHT22;9329;48.720;9.588;2022-07-29T09:17:41;26.90;99.90
18406;DHT22;9329;48.720;9.588;2022-07-29T09:20:11;27.30;99.90
18406;DHT22;9329;48.720;9.588;2022-07-29T09:22:38;27.50;99.90
18406;DHT22;9329;48.720;9.588;2022-07-29T09:25:06;27.30;99.90
18406;DHT22;9329;48.720;9.588;2022-07-29T09:27:34;27.20;99.90
18406;DHT22;9329;48.720;9.588;2022-07-29T09:30:03;27.50;99.90
18406;DHT22;9329;48.720;9.588;2022-07-29T09:32:31;27.40;99.90
18406;DHT22;9329;48.720;9.588;2022-07-29T09:35:19;27.40;99.90
18406;DHT22;9329;48.720;9.588;2022-07-29T09:37:47;27.70;99.90
18406;DHT22;9329;48.720;9.588;2022-07-29T09:40:16;27.90;99.90
18406;DHT22;9329;48.720;9.588;2022-07-29T09:42:44;28.00;99.90
18406;DHT22;9329;48.720;9.588;2022-07-29T09:45:11;28.50;99.90
18406;DHT22;9329;48.720;9.588;2022-07-29T09:47:43;28.70;99.90
18406;DHT22;9329;48.720;9.588;2022-07-29T09:50:16;28.70;99.90
18406;DHT22;9329;48.720;9.588;2022-07-29T09:52:46;29.20;99.90
18406;DHT22;9329;48.720;9.588;2022-07-29T09:55:14;29.10;99.90
18406;DHT22;9329;48.720;9.588;2022-07-29T09:57:42;29.40;99.90
18406;DHT22;9329;48.720;9.588;2022-07-29T10:00:16;29.60;99.90
18406;DHT22;9329;48.720;9.588;2022-07-29T10:03:00;29.90;99.90
18406;DHT22;9329;48.720;9.588;2022-07-29T10:05:29;30.30;99.90
18406;DHT22;9329;48.720;9.588;2022-07-29T10:07:57;30.10;99.90
18406;DHT22;9329;48.720;9.588;2022-07-29T10:10:25;30.20;99.80
18406;DHT22;9329;48.720;9.588;2022-07-29T10:12:55;29.50;99.80
18406;DHT22;9329;48.720;9.588;2022-07-29T10:15:23;30.00;99.90
18406;DHT22;9329;48.720;9.588;2022-07-29T10:17:51;29.90;99.80
18406;DHT22;9329;48.720;9.588;2022-07-29T10:20:19;30.60;97.30
18406;DHT22;9329;48.720;9.588;2022-07-29T10:22:49;30.60;96.30
18406;DHT22;9329;48.720;9.588;2022-07-29T10:25:16;30.50;96.60
18406;DHT22;9329;48.720;9.588;2022-07-29T10:27:44;30.30;97.70
18406;DHT22;9329;48.720;9.588;2022-07-29T10:30:12;30.60;97.00
18406;DHT22;9329;48.720;9.588;2022-07-29T10:33:08;30.70;95.90
18406;DHT22;9329;48.720;9.588;2022-07-29T10:35:40;29.90;95.20
18406;DHT22;9329;48.720;9.588;2022-07-29T10:38:18;30.20;94.70
18406;DHT22;9329;48.720;9.588;2022-07-29T10:40:51;30.10;93.80
18406;DHT22;9329;48.720;9.588;2022-07-29T10:43:40;29.90;97.60
18406;DHT22;9329;48.720;9.588;2022-07-29T10:46:08;29.90;96.00
18406;DHT22;9329;48.720;9.588;2022-07-29T10:48:45;30.40;94.80
18406;DHT22;9329;48.720;9.588;2022-07-29T10:54:13;30.90;92.70
18406;DHT22;9329;48.720;9.588;2022-07-29T10:56:41;31.30;90.00
18406;DHT22;9329;48.720;9.588;2022-07-29T10:59:22;31.80;91.80
18406;DHT22;9329;48.720;9.588;2022-07-29T11:01:52;31.80;91.70
18406;DHT22;9329;48.720;9.588;2022-07-29T11:07:22;32.10;91.10
18406;DHT22;9329;48.720;9.588;2022-07-29T11:12:58;32.20;90.20
18406;DHT22;9329;48.720;9.588;2022-07-29T11:15:25;32.00;86.30
18406;DHT22;9329;48.720;9.588;2022-07-29T11:18:08;31.80;84.10
18406;DHT22;9329;48.720;9.588;2022-07-29T11:20:40;31.80;86.50
18406;DHT22;9329;48.720;9.588;2022-07-29T11:23:34;31.60;85.90
18406;DHT22;9329;48.720;9.588;2022-07-29T11:26:15;31.60;85.30
18406;DHT22;9329;48.720;9.588;2022-07-29T11:28:57;31.20;89.10
18406;DHT22;9329;48.720;9.588;2022-07-29T11:31:34;31.20;90.30
18406;DHT22;9329;48.720;9.588;2022-07-29T11:34:19;31.20;85.90
18406;DHT22;9329;48.720;9.588;2022-07-29T11:37:18;31.10;85.50
18406;DHT22;9329;48.720;9.588;2022-07-29T11:39:46;30.40;89.30
18406;DHT22;9329;48.720;9.588;2022-07-29T11:42:42;29.80;91.10
18406;DHT22;9329;48.720;9.588;2022-07-29T11:45:15;29.70;91.10
18406;DHT22;9329;48.720;9.588;2022-07-29T11:47:49;29.50;92.00
18406;DHT22;9329;48.720;9.588;2022-07-29T11:50:17;29.40;92.40
18406;DHT22;9329;48.720;9.588;2022-07-29T11:52:53;29.30;92.90
18406;DHT22;9329;48.720;9.588;2022-07-29T11:55:22;29.00;94.30
18406;DHT22;9329;48.720;9.588;2022-07-29T11:57:51;28.90;95.80
18406;DHT22;9329;48.720;9.588;2022-07-29T12:00:26;28.80;94.10
18406;DHT22;9329;48.720;9.588;2022-07-29T12:02:54;28.80;93.50
18406;DHT22;9329;48.720;9.588;2022-07-29T12:05:34;28.90;93.30
18406;DHT22;9329;48.720;9.588;2022-07-29T12:08:08;27.90;94.70
18406;DHT22;9329;48.720;9.588;2022-07-29T12:10:35;27.70;96.20
18406;DHT22;9329;48.720;9.588;2022-07-29T12:13:03;27.60;96.40
18406;DHT22;9329;48.720;9.588;2022-07-29T12:15:33;27.70;95.10
18406;DHT22;9329;48.720;9.588;2022-07-29T12:18:10;27.40;95.80
18406;DHT22;9329;48.720;9.588;2022-07-29T12:20:38;27.20;96.50
18406;DHT22;9329;48.720;9.588;2022-07-29T12:23:06;27.40;96.40
18406;DHT22;9329;48.720;9.588;2022-07-29T12:25:35;27.50;97.20
18406;DHT22;9329;48.720;9.588;2022-07-29T12:28:05;27.50;98.00
18406;DHT22;9329;48.720;9.588;2022-07-29T12:30:51;27.40;98.40
18406;DHT22;9329;48.720;9.588;2022-07-29T12:33:20;27.70;98.70
18406;DHT22;9329;48.720;9.588;2022-07-29T12:35:50;28.00;97.20
18406;DHT22;9329;48.720;9.588;2022-07-29T12:38:19;28.20;98.80
18406;DHT22;9329;48.720;9.588;2022-07-29T12:40:48;28.20;98.60
18406;DHT22;9329;48.720;9.588;2022-07-29T12:43:18;28.40;98.90
18406;DHT22;9329;48.720;9.588;2022-07-29T12:45:48;28.00;96.60
18406;DHT22;9329;48.720;9.588;2022-07-29T12:48:30;27.70;97.80
18406;DHT22;9329;48.720;9.588;2022-07-29T12:51:00;28.00;95.90
18406;DHT22;9329;48.720;9.588;2022-07-29T12:53:28;28.10;96.80
18406;DHT22;9329;48.720;9.588;2022-07-29T12:55:55;28.50;96.40
18406;DHT22;9329;48.720;9.588;2022-07-29T12:58:26;29.40;94.80
18406;DHT22;9329;48.720;9.588;2022-07-29T13:01:00;29.20;93.80
18406;DHT22;9329;48.720;9.588;2022-07-29T13:03:29;29.20;95.10
18406;DHT22;9329;48.720;9.588;2022-07-29T13:06:30;28.80;94.00
18406;DHT22;9329;48.720;9.588;2022-07-29T13:09:03;28.80;94.70
18406;DHT22;9329;48.720;9.588;2022-07-29T13:11:31;28.50;94.90
18406;DHT22;9329;48.720;9.588;2022-07-29T13:13:59;28.00;96.90
18406;DHT22;9329;48.720;9.588;2022-07-29T13:16:26;28.00;96.10
18406;DHT22;9329;48.720;9.588;2022-07-29T13:19:09;27.70;96.70
18406;DHT22;9329;48.720;9.588;2022-07-29T13:21:37;27.30;95.70
18406;DHT22;9329;48.720;9.588;2022-07-29T13:24:06;27.20;95.50
18406;DHT22;9329;48.720;9.588;2022-07-29T13:26:34;27.00;94.70
18406;DHT22;9329;48.720;9.588;2022-07-29T13:29:01;27.00;99.40
18406;DHT22;9329;48.720;9.588;2022-07-29T13:31:28;26.90;96.20
18406;DHT22;9329;48.720;9.588;2022-07-29T13:33:55;26.30;98.00
18406;DHT22;9329;48.720;9.588;2022-07-29T13:36:24;26.70;99.90
18406;DHT22;9329;48.720;9.588;2022-07-29T13:38:52;26.30;99.50
18406;DHT22;9329;48.720;9.588;2022-07-29T13:41:19;25.70;99.90
18406;DHT22;9329;48.720;9.588;2022-07-29T13:43:46;25.90;99.90
18406;DHT22;9329;48.720;9.588;2022-07-29T13:46:13;25.90;99.90
18406;DHT22;9329;48.720;9.588;2022-07-29T13:48:40;25.90;99.90
18406;DHT22;9329;48.720;9.588;2022-07-29T13:51:07;26.10;99.90
18406;DHT22;9329;48.720;9.588;2022-07-29T13:53:36;26.00;99.90
18406;DHT22;9329;48.720;9.588;2022-07-29T13:56:03;26.00;99.90
18406;DHT22;9329;48.720;9.588;2022-07-29T13:58:32;26.50;99.90
18406;DHT22;9329;48.720;9.588;2022-07-29T14:01:00;26.70;99.90
18406;DHT22;9329;48.720;9.588;2022-07-29T14:03:27;26.90;99.90
18406;DHT22;9329;48.720;9.588;2022-07-29T14:05:54;27.20;99.90
18406;DHT22;9329;48.720;9.588;2022-07-29T14:08:22;27.10;99.90
18406;DHT22;9329;48.720;9.588;2022-07-29T14:10:51;26.30;99.90
18406;DHT22;9329;48.720;9.588;2022-07-29T14:13:18;26.10;99.90
18406;DHT22;9329;48.720;9.588;2022-07-29T14:15:45;25.50;99.90
18406;DHT22;9329;48.720;9.588;2022-07-29T14:18:12;25.40;99.90
18406;DHT22;9329;48.720;9.588;2022-07-29T14:20:39;25.30;99.90
18406;DHT22;9329;48.720;9.588;2022-07-29T14:23:06;25.50;99.90
18406;DHT22;9329;48.720;9.588;2022-07-29T14:25:33;24.90;99.90
18406;DHT22;9329;48.720;9.588;2022-07-29T14:28:01;24.90;99.90
18406;DHT22;9329;48.720;9.588;2022-07-29T14:30:28;25.10;99.90
18406;DHT22;9329;48.720;9.588;2022-07-29T14:32:56;24.60;99.90
18406;DHT22;9329;48.720;9.588;2022-07-29T14:35:23;24.50;99.90
18406;DHT22;9329;48.720;9.588;2022-07-29T14:37:50;24.40;99.90
18406;DHT22;9329;48.720;9.588;2022-07-29T14:40:17;24.80;99.90
18406;DHT22;9329;48.720;9.588;2022-07-29T14:42:44;24.90;99.90
18406;DHT22;9329;48.720;9.588;2022-07-29T14:45:12;24.60;99.90
18406;DHT22;9329;48.720;9.588;2022-07-29T14:47:39;24.70;99.90
18406;DHT22;9329;48.720;9.588;2022-07-29T14:50:07;24.20;99.90
18406;DHT22;9329;48.720;9.588;2022-07-29T14:52:35;24.40;99.90
18406;DHT22;9329;48.720;9.588;2022-07-29T14:55:03;24.50;99.90
18406;DHT22;9329;48.720;9.588;2022-07-29T14:57:30;24.70;99.90
18406;DHT22;9329;48.720;9.588;2022-07-29T14:59:57;24.80;99.90
18406;DHT22;9329;48.720;9.588;2022-07-29T15:02:26;24.90;99.90
18406;DHT22;9329;48.720;9.588;2022-07-29T15:04:53;25.10;99.90
18406;DHT22;9329;48.720;9.588;2022-07-29T15:07:20;25.20;99.90
18406;DHT22;9329;48.720;9.588;2022-07-29T15:09:47;25.60;99.90
18406;DHT22;9329;48.720;9.588;2022-07-29T15:12:14;25.40;99.90
18406;DHT22;9329;48.720;9.588;2022-07-29T15:14:41;25.60;99.90
18406;DHT22;9329;48.720;9.588;2022-07-29T15:17:08;25.80;99.90
18406;DHT22;9329;48.720;9.588;2022-07-29T15:19:37;25.80;99.90
18406;DHT22;9329;48.720;9.588;2022-07-29T15:22:04;25.10;99.90
18406;DHT22;9329;48.720;9.588;2022-07-29T15:24:31;25.00;99.90
18406;DHT22;9329;48.720;9.588;2022-07-29T15:26:58;25.30;99.90
18406;DHT22;9329;48.720;9.588;2022-07-29T15:29:25;25.20;99.90
18406;DHT22;9329;48.720;9.588;2022-07-29T15:31:52;25.20;99.90
18406;DHT22;9329;48.720;9.588;2022-07-29T15:34:19;25.20;99.90
18406;DHT22;9329;48.720;9.588;2022-07-29T15:36:50;25.10;99.90
18406;DHT22;9329;48.720;9.588;2022-07-29T15:39:18;25.50;99.90
18406;DHT22;9329;48.720;9.588;2022-07-29T15:41:45;25.20;99.90
18406;DHT22;9329;48.720;9.588;2022-07-29T15:44:12;24.90;99.90
18406;DHT22;9329;48.720;9.588;2022-07-29T15:46:39;25.20;99.90
18406;DHT22;9329;48.720;9.588;2022-07-29T15:49:24;25.50;99.90
18406;DHT22;9329;48.720;9.588;2022-07-29T15:51:58;25.80;99.90
18406;DHT22;9329;48.720;9.588;2022-07-29T15:54:25;25.80;99.90
18406;DHT22;9329;48.720;9.588;2022-07-29T15:56:53;25.70;99.90
18406;DHT22;9329;48.720;9.588;2022-07-29T15:59:20;25.50;99.90
18406;DHT22;9329;48.720;9.588;2022-07-29T16:01:48;25.40;99.90
18406;DHT22;9329;48.720;9.588;2022-07-29T16:04:15;25.50;99.90
18406;DHT22;9329;48.720;9.588;2022-07-29T16:06:43;25.40;99.90
18406;DHT22;9329;48.720;9.588;2022-07-29T16:09:12;25.50;99.90